createdAt,value
2022-10-09T00:01:03.363Z,10.57
2022-10-09T00:03:30.132Z,10.54
2022-10-09T00:05:56.808Z,10.25
2022-10-09T00:08:23.500Z,10.24
2022-10-09T00:10:50.299Z,10.29
2022-10-09T00:13:17.034Z,10.59
2022-10-09T00:15:45.594Z,10.27
2022-10-09T00:18:14.730Z,10.49
2022-10-09T00:20:43.936Z,10.59
2022-10-09T00:23:14.635Z,10.59
2022-10-09T00:25:53.645Z,10.72
2022-10-09T00:28:22.674Z,10.67
2022-10-09T00:30:49.430Z,10.30
2022-10-09T00:33:16.743Z,10.33
2022-10-09T00:35:43.658Z,10.53
2022-10-09T00:38:11.087Z,10.68
2022-10-09T00:40:38.683Z,10.39
2022-10-09T00:43:13.497Z,10.55
2022-10-09T00:45:45.290Z,10.79
2022-10-09T00:48:12.708Z,10.24
2022-10-09T00:50:44.798Z,10.89
2022-10-09T00:53:15.703Z,10.79
2022-10-09T00:55:43.553Z,10.68
2022-10-09T00:58:13.135Z,10.74
2022-10-09T01:00:40.748Z,10.78
2022-10-09T01:03:07.579Z,10.76
2022-10-09T01:06:00.159Z,10.52
2022-10-09T01:08:34.503Z,10.35
2022-10-09T01:11:18.238Z,10.52
2022-10-09T01:13:44.898Z,10.71
2022-10-09T01:16:24.059Z,10.35
2022-10-09T01:19:01.666Z,10.65
2022-10-09T01:21:53.008Z,10.42
2022-10-09T01:24:48.938Z,10.81
2022-10-09T01:27:22.254Z,10.57
2022-10-09T01:29:49.907Z,11.07
2022-10-09T01:32:20.032Z,10.70
2022-10-09T01:34:48.014Z,10.39
2022-10-09T01:37:17.543Z,10.36
2022-10-09T01:39:46.372Z,10.57
2022-10-09T01:42:15.088Z,10.63
2022-10-09T01:44:42.344Z,10.56
2022-10-09T01:47:16.911Z,10.67
2022-10-09T01:50:25.081Z,10.62
2022-10-09T01:52:55.748Z,10.63
2022-10-09T01:55:28.396Z,10.85
2022-10-09T01:58:16.253Z,10.71
2022-10-09T02:00:48.653Z,10.49
2022-10-09T02:03:17.079Z,11.03
2022-10-09T02:05:47.451Z,10.52
2022-10-09T02:08:18.598Z,10.64
2022-10-09T02:10:48.322Z,10.57
2022-10-09T02:13:15.168Z,10.47
2022-10-09T02:15:48.387Z,10.85
2022-10-09T02:18:15.698Z,10.86
2022-10-09T02:20:48.454Z,10.91
2022-10-09T02:23:16.960Z,10.79
2022-10-09T02:25:43.910Z,10.72
2022-10-09T02:28:11.402Z,10.82
2022-10-09T02:31:03.952Z,10.82
2022-10-09T02:33:32.947Z,10.74
2022-10-09T02:36:00.333Z,10.78
2022-10-09T02:38:27.142Z,10.72
2022-10-09T02:40:58.093Z,10.72
2022-10-09T02:43:24.834Z,10.59
2022-10-09T02:45:51.746Z,10.27
2022-10-09T02:48:18.428Z,10.50
2022-10-09T02:50:45.027Z,10.70
2022-10-09T02:53:11.704Z,10.64
2022-10-09T02:55:38.403Z,10.49
2022-10-09T02:58:05.047Z,10.76
2022-10-09T03:00:31.722Z,10.25
2022-10-09T03:02:58.469Z,10.51
2022-10-09T03:05:25.559Z,10.52
2022-10-09T03:07:53.265Z,10.45
2022-10-09T03:10:20.754Z,10.45
2022-10-09T03:12:50.341Z,10.72
2022-10-09T03:15:18.269Z,10.44
2022-10-09T03:17:44.955Z,10.60
2022-10-09T03:20:11.642Z,10.56
2022-10-09T03:22:38.313Z,10.31
2022-10-09T03:25:08.423Z,10.53
2022-10-09T03:27:38.238Z,10.57
2022-10-09T03:30:05.528Z,10.55
2022-10-09T03:32:32.355Z,10.47
2022-10-09T03:34:59.080Z,10.43
2022-10-09T03:37:25.746Z,10.53
2022-10-09T03:39:52.397Z,10.63
2022-10-09T03:42:19.039Z,10.63
2022-10-09T03:44:45.662Z,10.82
2022-10-09T03:47:12.325Z,10.68
2022-10-09T03:49:38.962Z,10.82
2022-10-09T03:52:05.679Z,10.86
2022-10-09T03:54:32.311Z,11.01
2022-10-09T03:56:59.214Z,11.07
2022-10-09T03:59:25.995Z,11.10
2022-10-09T04:01:52.904Z,11.17
2022-10-09T04:04:19.599Z,11.27
2022-10-09T04:06:46.308Z,11.18
2022-10-09T04:09:12.948Z,11.16
2022-10-09T04:11:39.630Z,11.56
2022-10-09T04:14:06.319Z,11.55
2022-10-09T04:16:33.074Z,11.27
2022-10-09T04:18:59.780Z,11.55
2022-10-09T04:21:26.539Z,11.34
2022-10-09T04:23:54.296Z,11.53
2022-10-09T04:26:21.056Z,11.33
2022-10-09T04:28:47.775Z,11.47
2022-10-09T04:31:14.527Z,11.66
2022-10-09T04:33:41.275Z,11.82
2022-10-09T04:36:07.985Z,11.73
2022-10-09T04:38:34.838Z,11.55
2022-10-09T04:41:04.410Z,11.68
2022-10-09T04:43:31.371Z,11.70
2022-10-09T04:45:58.178Z,12.02
2022-10-09T04:48:25.366Z,11.93
2022-10-09T04:50:52.016Z,12.10
2022-10-09T04:53:18.679Z,12.02
2022-10-09T04:55:45.932Z,11.95
2022-10-09T04:58:13.840Z,11.68
2022-10-09T05:00:42.766Z,11.64
2022-10-09T05:03:10.551Z,11.73
2022-10-09T05:05:37.700Z,11.93
2022-10-09T05:08:04.709Z,11.76
2022-10-09T05:10:32.487Z,11.47
2022-10-09T05:12:59.833Z,11.59
2022-10-09T05:15:27.206Z,11.78
2022-10-09T05:17:53.904Z,11.77
2022-10-09T05:20:20.749Z,11.58
2022-10-09T05:22:47.921Z,11.49
2022-10-09T05:25:15.190Z,11.72
2022-10-09T05:27:41.907Z,11.47
2022-10-09T05:30:09.574Z,11.51
2022-10-09T05:32:36.295Z,11.43
2022-10-09T05:35:04.492Z,11.71
2022-10-09T05:37:31.233Z,11.63
2022-10-09T05:39:58.084Z,11.65
2022-10-09T05:42:24.851Z,11.74
2022-10-09T05:44:51.522Z,11.88
2022-10-09T05:47:22.819Z,11.53
2022-10-09T05:49:49.471Z,11.34
2022-10-09T05:52:16.148Z,11.83
2022-10-09T05:54:42.784Z,11.80
2022-10-09T05:57:09.944Z,12.11
2022-10-09T05:59:36.664Z,11.70
2022-10-09T06:02:03.775Z,11.93
2022-10-09T06:04:31.150Z,12.04
2022-10-09T06:06:57.855Z,12.25
2022-10-09T06:09:25.675Z,12.26
2022-10-09T06:11:54.281Z,12.00
2022-10-09T06:14:25.251Z,11.88
2022-10-09T06:16:52.208Z,12.04
2022-10-09T06:19:20.149Z,12.15
2022-10-09T06:21:47.947Z,12.01
2022-10-09T06:24:25.852Z,11.81
2022-10-09T06:26:54.769Z,11.80
2022-10-09T06:29:21.856Z,12.03
2022-10-09T06:31:48.626Z,12.37
2022-10-09T06:34:15.362Z,12.22
2022-10-09T06:36:42.081Z,12.15
2022-10-09T06:39:10.416Z,12.46
2022-10-09T06:41:37.230Z,12.07
2022-10-09T06:44:10.806Z,11.84
2022-10-09T06:46:41.815Z,11.90
2022-10-09T06:49:10.177Z,12.30
2022-10-09T06:51:37.178Z,12.24
2022-10-09T06:54:10.562Z,12.40
2022-10-09T06:56:37.283Z,12.20
2022-10-09T06:59:05.420Z,12.34
2022-10-09T07:01:33.815Z,11.95
2022-10-09T07:04:13.391Z,12.63
2022-10-09T07:06:42.220Z,12.29
2022-10-09T07:09:13.348Z,12.27
2022-10-09T07:11:43.507Z,12.44
2022-10-09T07:14:11.674Z,12.42
2022-10-09T07:16:41.195Z,12.41
2022-10-09T07:19:11.250Z,12.50
2022-10-09T07:21:39.970Z,12.20
2022-10-09T07:24:07.741Z,12.49
2022-10-09T07:26:37.060Z,12.79
2022-10-09T07:29:06.016Z,12.84
2022-10-09T07:31:32.812Z,12.87
2022-10-09T07:33:59.648Z,12.44
2022-10-09T07:36:26.922Z,12.70
2022-10-09T07:38:56.183Z,12.44
2022-10-09T07:41:26.833Z,12.82
2022-10-09T07:43:53.859Z,12.65
2022-10-09T07:46:22.725Z,12.43
2022-10-09T07:48:50.121Z,12.77
2022-10-09T07:51:29.088Z,12.57
2022-10-09T07:53:57.490Z,12.79
2022-10-09T07:56:32.573Z,12.65
2022-10-09T07:59:01.919Z,12.76
2022-10-09T08:01:30.314Z,12.42
2022-10-09T08:03:58.188Z,12.58
2022-10-09T08:06:24.932Z,12.66
2022-10-09T08:08:53.259Z,12.37
2022-10-09T08:11:21.963Z,12.81
2022-10-09T08:13:50.356Z,12.51
2022-10-09T08:16:18.604Z,12.82
2022-10-09T08:18:45.650Z,12.54
2022-10-09T08:21:15.447Z,12.79
2022-10-09T08:23:42.659Z,12.64
2022-10-09T08:26:17.828Z,12.58
2022-10-09T08:28:49.393Z,13.08
2022-10-09T08:31:17.355Z,13.46
2022-10-09T08:33:44.675Z,13.07
2022-10-09T08:36:15.323Z,12.93
2022-10-09T08:38:47.916Z,13.11
2022-10-09T08:41:27.140Z,13.54
2022-10-09T08:44:04.867Z,13.48
2022-10-09T08:46:34.576Z,13.72
2022-10-09T08:49:04.669Z,13.71
2022-10-09T08:51:38.267Z,13.54
2022-10-09T08:54:04.913Z,13.97
2022-10-09T08:56:34.314Z,13.97
2022-10-09T08:59:02.558Z,13.50
2022-10-09T09:01:45.166Z,13.93
2022-10-09T09:04:36.856Z,13.93
2022-10-09T09:07:19.775Z,13.82
2022-10-09T09:10:00.137Z,13.64
2022-10-09T09:12:52.876Z,13.86
2022-10-09T09:15:44.870Z,13.64
2022-10-09T09:18:42.562Z,13.94
2022-10-09T09:21:18.237Z,13.79
2022-10-09T09:23:47.796Z,13.85
2022-10-09T09:26:21.511Z,14.11
2022-10-09T09:28:53.320Z,13.88
2022-10-09T09:31:25.636Z,14.05
2022-10-09T09:34:14.462Z,14.01
2022-10-09T09:37:03.081Z,13.97
2022-10-09T09:42:21.341Z,14.21
2022-10-09T09:44:57.919Z,14.20
2022-10-09T09:47:40.525Z,13.78
2022-10-09T09:50:18.462Z,14.08
2022-10-09T11:09:50.266Z,13.96
2022-10-09T11:12:47.930Z,13.86
2022-10-09T11:15:16.993Z,13.50
2022-10-09T11:18:08.111Z,13.61
2022-10-09T11:20:53.021Z,14.07
2022-10-09T11:23:37.925Z,13.93
2022-10-09T11:26:11.821Z,13.93
2022-10-09T11:28:48.744Z,13.91
2022-10-09T11:31:30.371Z,13.67
2022-10-09T11:34:09.758Z,13.81
2022-10-09T11:36:43.195Z,14.12
2022-10-09T11:39:18.957Z,13.76
2022-10-09T11:41:48.213Z,14.10
2022-10-09T11:44:14.935Z,14.04
2022-10-09T11:46:44.398Z,14.05
2022-10-09T11:49:35.181Z,14.16
2022-10-09T11:52:35.571Z,14.22
2022-10-09T11:55:17.617Z,14.32
2022-10-09T11:57:44.453Z,14.21
2022-10-09T12:00:11.668Z,14.26
2022-10-09T12:02:38.988Z,14.34
2022-10-09T12:05:32.812Z,14.23
2022-10-09T12:08:12.023Z,14.40
2022-10-09T12:10:57.252Z,14.20
2022-10-09T12:13:41.293Z,13.99
2022-10-09T12:16:28.323Z,14.02
2022-10-09T12:18:57.191Z,14.16
2022-10-09T12:21:28.006Z,14.22
2022-10-09T12:23:55.293Z,14.03
2022-10-09T12:26:25.142Z,14.02
2022-10-09T12:28:56.597Z,14.37
2022-10-09T12:31:37.093Z,14.12
2022-10-09T12:34:23.426Z,14.15
2022-10-09T12:36:50.189Z,14.10
2022-10-09T12:39:20.046Z,14.27
2022-10-09T12:41:49.041Z,14.50
2022-10-09T12:44:34.076Z,14.41
2022-10-09T12:47:05.397Z,14.05
2022-10-09T12:49:32.208Z,14.11
2022-10-09T12:52:00.416Z,14.25
2022-10-09T12:54:30.548Z,14.44
2022-10-09T12:56:59.098Z,14.16
2022-10-09T12:59:27.552Z,14.26
2022-10-09T13:01:59.152Z,14.28
2022-10-09T13:04:33.625Z,14.37
2022-10-09T13:07:06.677Z,14.30
2022-10-09T13:09:38.794Z,14.19
2022-10-09T13:12:09.774Z,14.38
2022-10-09T13:14:53.374Z,14.39
2022-10-09T13:17:41.588Z,14.34
2022-10-09T13:20:17.395Z,14.44
2022-10-09T13:23:02.120Z,14.27
2022-10-09T13:25:41.266Z,14.13
2022-10-09T13:28:08.183Z,13.95
2022-10-09T13:30:35.069Z,14.09
2022-10-09T13:33:01.839Z,14.48
2022-10-09T13:35:28.522Z,14.08
2022-10-09T13:37:55.305Z,14.14
2022-10-09T13:40:22.431Z,14.40
2022-10-09T13:43:02.659Z,14.12
2022-10-09T13:45:29.337Z,14.05
2022-10-09T13:47:56.204Z,13.91
2022-10-09T13:50:23.119Z,13.96
2022-10-09T13:52:50.298Z,13.88
2022-10-09T13:55:17.314Z,13.98
2022-10-09T13:57:44.222Z,14.34
2022-10-09T14:00:11.529Z,14.03
2022-10-09T14:02:38.446Z,14.15
2022-10-09T14:05:05.523Z,14.26
2022-10-09T14:07:32.232Z,14.46
2022-10-09T14:09:59.220Z,14.33
2022-10-09T14:12:26.196Z,14.44
2022-10-09T14:14:54.467Z,14.20
2022-10-09T14:17:25.198Z,14.30
2022-10-09T14:19:52.931Z,14.35
2022-10-09T14:22:19.727Z,14.53
2022-10-09T14:24:46.510Z,14.06
2022-10-09T14:27:13.199Z,14.01
2022-10-09T14:29:39.875Z,13.84
2022-10-09T14:32:06.749Z,14.12
2022-10-09T14:34:33.419Z,14.11
2022-10-09T14:37:00.172Z,14.02
2022-10-09T14:39:26.852Z,13.94
2022-10-09T14:41:53.554Z,13.85
2022-10-09T14:44:20.203Z,13.97
2022-10-09T14:46:46.931Z,14.19
2022-10-09T14:49:13.663Z,13.71
2022-10-09T14:51:41.735Z,13.71
2022-10-09T14:54:09.553Z,13.83
2022-10-09T14:56:36.656Z,13.59
2022-10-09T14:59:05.965Z,13.54
2022-10-09T15:01:33.210Z,13.77
2022-10-09T15:04:00.691Z,13.89
2022-10-09T15:06:28.274Z,13.96
2022-10-09T15:09:03.169Z,13.63
2022-10-09T15:11:33.592Z,13.63
2022-10-09T15:14:00.419Z,13.48
2022-10-09T15:16:32.722Z,13.59
2022-10-09T15:18:59.720Z,13.52
2022-10-09T15:21:32.615Z,13.90
2022-10-09T15:24:01.408Z,13.49
2022-10-09T15:26:30.429Z,13.41
2022-10-09T15:28:59.114Z,13.62
2022-10-09T15:31:34.575Z,12.75
2022-10-09T15:34:02.528Z,13.46
2022-10-09T15:36:31.069Z,13.31
2022-10-09T15:38:57.855Z,13.64
2022-10-09T15:41:30.925Z,13.89
2022-10-09T15:44:01.795Z,13.42
2022-10-09T15:46:29.649Z,13.39
2022-10-09T15:48:56.526Z,13.64
2022-10-09T15:51:24.329Z,13.74
2022-10-09T15:53:52.738Z,14.04
2022-10-09T15:56:22.500Z,14.07
2022-10-09T15:58:50.204Z,14.02
2022-10-09T16:01:18.450Z,13.62
2022-10-09T16:03:45.715Z,13.84
2022-10-09T16:06:15.061Z,13.73
2022-10-09T16:08:44.321Z,13.37
2022-10-09T16:11:18.994Z,13.72
2022-10-09T16:13:48.745Z,13.73
2022-10-09T16:16:23.545Z,13.64
2022-10-09T16:18:50.761Z,13.74
2022-10-09T16:21:26.632Z,13.66
2022-10-09T16:23:58.367Z,13.40
2022-10-09T16:26:26.335Z,13.80
2022-10-09T16:28:53.177Z,13.28
2022-10-09T16:31:26.179Z,13.67
2022-10-09T16:33:53.462Z,13.52
2022-10-09T16:36:20.404Z,13.63
2022-10-09T16:38:47.547Z,13.74
2022-10-09T16:41:20.311Z,13.33
2022-10-09T16:43:48.864Z,13.68
2022-10-09T16:46:21.202Z,13.84
2022-10-09T16:48:49.079Z,13.54
2022-10-09T16:51:21.322Z,13.75
2022-10-09T16:53:56.176Z,13.52
2022-10-09T16:56:26.525Z,13.22
2022-10-09T16:59:00.150Z,13.41
2022-10-09T17:01:28.323Z,13.78
2022-10-09T17:03:56.866Z,13.55
2022-10-09T17:06:24.288Z,13.71
2022-10-09T17:08:52.153Z,13.48
2022-10-09T17:11:19.925Z,13.66
2022-10-09T17:13:47.444Z,13.31
2022-10-09T17:16:18.832Z,13.64
2022-10-09T17:18:47.494Z,13.63
2022-10-09T17:21:15.243Z,13.40
2022-10-09T17:23:42.200Z,13.35
2022-10-09T17:26:11.948Z,13.42
2022-10-09T17:28:40.394Z,13.63
2022-10-09T17:31:10.115Z,13.57
2022-10-09T17:33:41.304Z,13.67
2022-10-09T17:36:09.171Z,13.32
2022-10-09T17:38:36.908Z,13.81
2022-10-09T17:41:08.092Z,13.56
2022-10-09T17:43:34.834Z,13.71
2022-10-09T17:46:01.761Z,13.91
2022-10-09T17:48:29.809Z,13.64
2022-10-09T17:51:00.453Z,13.64
2022-10-09T17:53:27.333Z,13.65
2022-10-09T17:55:56.390Z,13.30
2022-10-09T17:58:24.412Z,13.64
2022-10-09T18:00:51.217Z,13.90
2022-10-09T18:03:18.685Z,13.55
2022-10-09T18:05:48.557Z,13.46
2022-10-09T18:08:35.148Z,13.61
2022-10-09T18:11:05.807Z,13.51
2022-10-09T18:13:32.736Z,13.38
2022-10-09T18:15:59.607Z,13.04
2022-10-09T18:18:38.638Z,13.68
2022-10-09T18:21:10.648Z,12.80
2022-10-09T18:23:38.253Z,13.85
2022-10-09T18:26:15.075Z,13.58
2022-10-09T18:28:43.615Z,13.54
2022-10-09T18:31:25.943Z,13.43
2022-10-09T18:33:57.115Z,13.44
2022-10-09T18:36:25.733Z,13.66
2022-10-09T18:38:54.690Z,13.41
2022-10-09T18:41:23.124Z,13.45
2022-10-09T18:43:55.468Z,13.45
2022-10-09T18:46:26.345Z,13.81
2022-10-09T18:48:58.100Z,13.47
2022-10-09T18:51:30.643Z,13.50
2022-10-09T18:54:01.864Z,13.51
2022-10-09T18:56:33.215Z,13.55
2022-10-09T18:59:10.761Z,13.55
2022-10-09T19:01:37.520Z,13.59
2022-10-09T19:04:04.738Z,13.17
2022-10-09T19:06:31.676Z,13.70
2022-10-09T19:09:00.942Z,13.54
2022-10-09T19:11:32.812Z,13.51
2022-10-09T19:14:00.866Z,13.18
2022-10-09T19:16:33.374Z,12.94
2022-10-09T19:19:00.256Z,13.50
2022-10-09T19:21:27.139Z,13.27
2022-10-09T19:23:54.635Z,13.31
2022-10-09T19:26:22.552Z,13.11
2022-10-09T19:28:49.455Z,13.09
2022-10-09T19:31:16.138Z,13.44
2022-10-09T19:33:43.597Z,13.52
2022-10-09T19:36:12.522Z,13.62
2022-10-09T19:38:39.413Z,13.68
2022-10-09T19:41:14.879Z,13.62
2022-10-09T19:43:42.306Z,13.11
2022-10-09T19:46:17.311Z,13.04
2022-10-09T19:48:46.487Z,13.58
2022-10-09T19:51:16.799Z,13.70
2022-10-09T19:53:45.512Z,13.33
2022-10-09T19:56:23.428Z,13.37
2022-10-09T19:58:50.468Z,13.59
2022-10-09T20:01:19.694Z,13.30
2022-10-09T20:03:47.222Z,13.19
2022-10-09T20:06:15.259Z,13.64
2022-10-09T20:08:52.087Z,13.58
2022-10-09T20:11:20.732Z,13.54
2022-10-09T20:13:53.389Z,12.75
2022-10-09T20:16:25.884Z,12.85
2022-10-09T20:18:54.461Z,11.99
2022-10-09T20:21:21.278Z,11.68
2022-10-09T20:23:47.956Z,11.54
2022-10-09T20:26:18.029Z,11.65
2022-10-09T20:28:45.554Z,11.63
2022-10-09T20:31:16.502Z,11.08
2022-10-09T20:33:43.852Z,11.27
2022-10-09T20:36:40.083Z,11.30
2022-10-09T20:39:11.408Z,10.54
2022-10-09T20:41:39.254Z,10.82
2022-10-09T20:44:06.652Z,10.69
2022-10-09T20:46:36.374Z,10.57
2022-10-09T20:49:08.371Z,10.65
2022-10-09T20:51:36.166Z,10.61
2022-10-09T20:54:03.233Z,10.38
2022-10-09T20:56:32.729Z,10.50
2022-10-09T20:59:00.646Z,10.77
2022-10-09T21:01:30.253Z,10.95
2022-10-09T21:03:59.192Z,10.71
2022-10-09T21:06:26.334Z,10.99
2022-10-09T21:08:53.131Z,11.05
2022-10-09T21:11:20.173Z,11.09
2022-10-09T21:13:48.165Z,11.25
2022-10-09T21:16:18.404Z,11.18
2022-10-09T21:18:45.026Z,11.23
2022-10-09T21:21:17.472Z,11.38
2022-10-09T21:23:45.069Z,11.21
2022-10-09T21:26:16.685Z,11.37
2022-10-09T21:28:44.487Z,11.20
2022-10-09T21:31:13.533Z,11.35
2022-10-09T21:33:40.193Z,10.98
2022-10-09T21:36:13.062Z,11.23
2022-10-09T21:38:39.787Z,11.20
2022-10-09T21:41:06.446Z,11.54
2022-10-09T21:43:33.147Z,11.25
2022-10-09T21:45:59.925Z,11.48
2022-10-09T21:48:26.570Z,11.30
2022-10-09T21:50:53.208Z,11.33
2022-10-09T21:53:19.842Z,11.15
2022-10-09T21:55:46.471Z,11.29
2022-10-09T21:58:13.155Z,11.31
2022-10-09T22:00:39.855Z,11.11
2022-10-09T22:03:06.554Z,10.94
2022-10-09T22:05:33.224Z,10.66
2022-10-09T22:07:59.971Z,10.64
2022-10-09T22:10:26.624Z,10.43
2022-10-09T22:13:01.858Z,10.59
2022-10-09T22:15:28.542Z,10.46
2022-10-09T22:17:55.173Z,10.35
2022-10-09T22:20:21.786Z,10.18
2022-10-09T22:22:48.735Z,10.41
2022-10-09T22:25:15.650Z,10.23
2022-10-09T22:27:42.416Z,10.31
2022-10-09T22:30:09.847Z,10.23
2022-10-09T22:32:36.538Z,9.93
2022-10-09T22:35:03.258Z,10.20
2022-10-09T22:37:29.927Z,9.95
2022-10-09T22:39:56.596Z,10.13
2022-10-09T22:42:23.289Z,10.16
2022-10-09T22:44:50.007Z,9.99
2022-10-09T22:47:16.655Z,9.84
2022-10-09T22:49:43.383Z,10.01
2022-10-09T22:52:10.021Z,9.89
2022-10-09T22:54:36.683Z,10.06
2022-10-09T22:57:03.355Z,9.86
2022-10-09T22:59:30.073Z,9.64
2022-10-09T23:01:57.739Z,9.66
2022-10-09T23:04:24.669Z,9.70
2022-10-09T23:06:54.035Z,9.46
2022-10-09T23:09:23.086Z,9.46
2022-10-09T23:11:49.977Z,9.81
2022-10-09T23:14:16.965Z,9.75
2022-10-09T23:16:43.915Z,9.88
2022-10-09T23:19:10.870Z,9.93
2022-10-09T23:21:40.846Z,9.75
2022-10-09T23:24:08.767Z,10.00
2022-10-09T23:26:36.739Z,9.78
2022-10-09T23:29:07.345Z,9.64
2022-10-09T23:31:34.991Z,9.69
2022-10-09T23:34:03.697Z,9.66
2022-10-09T23:36:30.585Z,9.79
2022-10-09T23:38:57.988Z,9.75
2022-10-09T23:41:26.802Z,9.65
2022-10-09T23:43:54.633Z,9.42
2022-10-09T23:46:26.904Z,9.25
2022-10-09T23:48:54.437Z,9.43
2022-10-09T23:51:22.792Z,9.46
2022-10-09T23:53:49.879Z,9.32
2022-10-09T23:56:48.263Z,9.36
2022-10-09T23:59:14.887Z,9.23
